Time;durP1;ratioP1;P1;durP2;ratioP2;P2;SDS_P1;SDS_P2;PMS_P1;PMS_P2;Temp;Humidity;BMP_temperature;BMP_pressure;BME280_temperature;BME280_humidity;BME280_pressure;Samples;Min_cycle;Max_cycle;Signal;HPM_P1;HPM_P2
2022/05/12 00:00:24;;;;;;;0.00;0.00;;;9.90;99.90;;;;;;5058506;28;20078;-83
2022/05/12 00:02:49;;;;;;;0.00;0.00;;;9.90;99.90;;;;;;5058312;28;20051;-83
2022/05/12 00:05:16;;;;;;;0.20;0.20;;;9.90;99.90;;;;;;5040059;28;20040;-83
2022/05/12 00:07:45;;;;;;;0.00;0.00;;;9.90;99.90;;;;;;5043374;28;20048;-83
2022/05/12 00:10:15;;;;;;;0.00;0.00;;;9.80;99.90;;;;;;5026860;28;20036;-83
2022/05/12 00:12:42;;;;;;;0.00;0.00;;;9.80;99.90;;;;;;5042147;28;20036;-83
2022/05/12 00:15:13;;;;;;;0.00;0.00;;;9.80;99.90;;;;;;5041728;28;20059;-83
2022/05/12 00:17:40;;;;;;;0.00;0.00;;;9.80;99.90;;;;;;5041959;28;20079;-83
2022/05/12 00:20:06;;;;;;;0.00;0.00;;;9.70;99.90;;;;;;5028301;28;20071;-83
2022/05/12 00:22:32;;;;;;;0.00;0.00;;;9.70;99.90;;;;;;5027640;28;20048;-79
2022/05/12 00:24:58;;;;;;;0.00;0.00;;;9.70;99.90;;;;;;5043179;28;20037;-79
2022/05/12 00:27:24;;;;;;;0.40;0.40;;;9.70;99.90;;;;;;5023299;28;20033;-78
2022/05/12 00:29:50;;;;;;;0.03;0.03;;;9.60;99.90;;;;;;5038772;28;20643;-78
2022/05/12 00:32:15;;;;;;;0.10;0.10;;;9.60;99.90;;;;;;5027598;28;20482;-79
2022/05/12 00:34:41;;;;;;;0.00;0.00;;;9.60;99.90;;;;;;5041544;28;20055;-79
2022/05/12 00:37:08;;;;;;;0.00;0.00;;;9.50;99.90;;;;;;5038816;28;20135;-79
2022/05/12 00:39:34;;;;;;;1.63;1.52;;;9.50;99.90;;;;;;5052071;28;20052;-78
2022/05/12 00:42:00;;;;;;;0.10;0.10;;;9.50;99.90;;;;;;5041462;28;20425;-78
2022/05/12 00:44:26;;;;;;;0.00;0.00;;;9.50;99.90;;;;;;5040534;28;20054;-78
2022/05/12 00:46:53;;;;;;;0.17;0.17;;;9.50;99.90;;;;;;5041879;28;20056;-78
2022/05/12 00:49:27;;;;;;;0.00;0.00;;;9.50;99.90;;;;;;5040486;28;20041;-78
2022/05/12 00:52:01;;;;;;;0.00;0.00;;;9.50;99.90;;;;;;5043374;28;20127;-78
2022/05/12 00:54:47;;;;;;;0.10;0.10;;;9.40;99.90;;;;;;5040868;28;20071;-78
2022/05/12 00:57:19;;;;;;;0.00;0.00;;;9.40;99.90;;;;;;5025533;28;20058;-82
2022/05/12 00:59:45;;;;;;;0.00;0.00;;;9.30;99.90;;;;;;5028535;28;20053;-82
2022/05/12 01:02:14;;;;;;;0.00;0.00;;;9.30;99.90;;;;;;5026160;28;20067;-82
2022/05/12 01:04:42;;;;;;;0.10;0.10;;;9.20;99.90;;;;;;5055339;28;20513;-82
2022/05/12 01:07:08;;;;;;;0.40;0.40;;;9.20;99.90;;;;;;5041758;28;20040;-82
2022/05/12 01:09:34;;;;;;;0.00;0.00;;;9.20;99.90;;;;;;5027704;28;20408;-82
2022/05/12 01:12:02;;;;;;;0.10;0.10;;;9.20;99.90;;;;;;5025914;28;20040;-78
2022/05/12 01:14:27;;;;;;;0.15;0.15;;;9.20;99.90;;;;;;5042500;28;20036;-78
2022/05/12 01:16:56;;;;;;;0.00;0.00;;;9.30;99.90;;;;;;5046360;28;20037;-77
2022/05/12 01:19:27;;;;;;;0.00;0.00;;;9.20;99.90;;;;;;5055195;28;20041;-78
2022/05/12 01:21:54;;;;;;;0.10;0.10;;;9.30;99.90;;;;;;5056009;28;20036;-78
2022/05/12 01:24:24;;;;;;;0.10;0.10;;;9.20;99.90;;;;;;5053860;28;20611;-78
2022/05/12 01:26:51;;;;;;;0.00;0.00;;;9.20;99.90;;;;;;5045097;28;20044;-78
2022/05/12 01:29:17;;;;;;;0.00;0.00;;;9.20;99.90;;;;;;5040864;28;20055;-82
2022/05/12 01:31:43;;;;;;;0.22;0.22;;;9.20;99.90;;;;;;5039416;28;20048;-82
2022/05/12 01:34:11;;;;;;;0.00;0.00;;;9.10;99.90;;;;;;5022589;28;20935;-82
2022/05/12 01:36:37;;;;;;;0.10;0.10;;;9.10;99.90;;;;;;5040664;28;20100;-82
2022/05/12 01:39:06;;;;;;;0.00;0.00;;;9.00;99.90;;;;;;5041837;28;20040;-82
2022/05/12 01:41:32;;;;;;;0.00;0.00;;;9.10;99.90;;;;;;5040840;28;20037;-82
2022/05/12 01:44:00;;;;;;;0.00;0.00;;;9.10;99.90;;;;;;5040561;28;20356;-82
2022/05/12 01:46:26;;;;;;;0.00;0.00;;;9.10;99.90;;;;;;5028213;28;21719;-83
2022/05/12 01:48:51;;;;;;;0.00;0.00;;;9.10;99.90;;;;;;5009813;28;20068;-83
2022/05/12 01:51:17;;;;;;;0.00;0.00;;;9.10;99.90;;;;;;5041407;28;20454;-83
2022/05/12 01:53:43;;;;;;;0.00;0.00;;;9.10;99.90;;;;;;5042566;28;20040;-83
2022/05/12 01:56:09;;;;;;;0.03;0.03;;;9.20;99.90;;;;;;5052399;28;20058;-83
2022/05/12 01:58:35;;;;;;;0.10;0.10;;;9.10;99.90;;;;;;5044907;28;20544;-83
2022/05/12 02:01:01;;;;;;;0.00;0.00;;;9.10;99.90;;;;;;5038413;28;20050;-83
2022/05/12 02:03:27;;;;;;;0.20;0.20;;;9.10;99.90;;;;;;5023837;28;20048;-83
2022/05/12 02:05:53;;;;;;;0.00;0.00;;;9.10;99.90;;;;;;5024919;28;20040;-83
2022/05/12 02:08:19;;;;;;;0.00;0.00;;;9.10;99.90;;;;;;5018948;28;20049;-83
2022/05/12 02:10:48;;;;;;;0.10;0.10;;;9.00;99.90;;;;;;5041492;28;20139;-83
2022/05/12 02:13:14;;;;;;;0.15;0.15;;;9.10;99.90;;;;;;5043616;28;20043;-84
2022/05/12 02:15:41;;;;;;;0.10;0.10;;;9.00;99.90;;;;;;5038560;28;20037;-83
2022/05/12 02:18:07;;;;;;;0.10;0.10;;;9.00;99.90;;;;;;5056889;28;20037;-83
2022/05/12 02:20:33;;;;;;;0.00;0.00;;;9.00;99.90;;;;;;5040786;28;20044;-83
2022/05/12 02:22:58;;;;;;;0.10;0.10;;;9.00;99.90;;;;;;5042594;28;20056;-83
2022/05/12 02:25:24;;;;;;;0.20;0.20;;;9.10;99.90;;;;;;5031348;28;20056;-83
2022/05/12 02:27:51;;;;;;;0.90;0.73;;;9.10;99.90;;;;;;5043049;28;20077;-83
2022/05/12 02:30:27;;;;;;;0.20;0.20;;;9.00;99.90;;;;;;5044337;28;20036;-83
2022/05/12 02:32:53;;;;;;;0.10;0.10;;;9.00;99.90;;;;;;5027021;28;20063;-83
2022/05/12 02:35:20;;;;;;;0.00;0.00;;;9.10;99.90;;;;;;5039818;28;20074;-82
2022/05/12 02:37:46;;;;;;;0.00;0.00;;;9.00;99.90;;;;;;5055906;28;20076;-82
2022/05/12 02:40:14;;;;;;;0.10;0.10;;;9.10;99.90;;;;;;5043081;28;20047;-82
2022/05/12 02:42:40;;;;;;;0.03;0.03;;;9.10;99.90;;;;;;5043440;28;20090;-82
2022/05/12 02:45:07;;;;;;;0.10;0.10;;;9.10;99.90;;;;;;5011070;28;20048;-82
2022/05/12 02:47:33;;;;;;;8.15;0.57;;;9.00;99.90;;;;;;5028592;28;20071;-82
2022/05/12 02:49:59;;;;;;;0.43;0.43;;;9.00;99.90;;;;;;5027656;28;20084;-82
2022/05/12 02:52:25;;;;;;;0.10;0.10;;;9.10;99.90;;;;;;5027330;28;20119;-82
2022/05/12 02:54:50;;;;;;;0.47;0.47;;;9.00;99.90;;;;;;5028666;28;20044;-82
2022/05/12 02:57:16;;;;;;;0.00;0.00;;;9.00;99.90;;;;;;5026764;28;20057;-82
2022/05/12 02:59:42;;;;;;;0.08;0.08;;;9.00;99.90;;;;;;5021847;28;20106;-82
2022/05/12 03:02:09;;;;;;;0.20;0.20;;;8.90;99.90;;;;;;5030026;28;21810;-82
2022/05/12 03:04:35;;;;;;;0.00;0.00;;;8.90;99.90;;;;;;5059283;28;20067;-82
2022/05/12 03:07:01;;;;;;;0.20;0.17;;;8.80;99.90;;;;;;5045422;28;20479;-82
2022/05/12 03:09:27;;;;;;;0.30;0.30;;;8.80;99.90;;;;;;5027552;28;20040;-79
2022/05/12 03:11:52;;;;;;;0.65;0.55;;;8.80;99.90;;;;;;5008165;28;20052;-78
2022/05/12 03:14:18;;;;;;;0.00;0.00;;;8.80;99.90;;;;;;5024761;28;20051;-78
2022/05/12 03:16:44;;;;;;;0.13;0.13;;;8.80;99.90;;;;;;5043181;28;20052;-78
2022/05/12 03:19:10;;;;;;;0.10;0.10;;;8.70;99.90;;;;;;5041783;28;20036;-78
2022/05/12 03:21:36;;;;;;;0.38;0.38;;;8.70;99.90;;;;;;5041566;28;20071;-78
2022/05/12 03:24:04;;;;;;;0.10;0.10;;;8.70;99.90;;;;;;5041391;28;20124;-78
2022/05/12 03:26:30;;;;;;;0.20;0.20;;;8.80;99.90;;;;;;5041321;28;20036;-82
2022/05/12 03:28:56;;;;;;;0.00;0.00;;;8.80;99.90;;;;;;5045980;28;20051;-82
2022/05/12 03:31:22;;;;;;;0.10;0.10;;;8.80;99.90;;;;;;5043861;28;20087;-82
2022/05/12 03:33:48;;;;;;;0.35;0.08;;;8.80;99.90;;;;;;5044997;28;20036;-82
2022/05/12 03:36:16;;;;;;;0.10;0.10;;;8.80;99.90;;;;;;5042364;28;20094;-82
2022/05/12 03:38:43;;;;;;;0.00;0.00;;;8.80;99.90;;;;;;5029024;28;20040;-82
2022/05/12 03:41:09;;;;;;;0.00;0.00;;;8.80;99.90;;;;;;5027110;28;20049;-82
2022/05/12 03:46:19;;;;;;;0.00;0.00;;;8.80;99.90;;;;;;5045038;28;20036;-82
2022/05/12 03:48:45;;;;;;;0.00;0.00;;;8.70;99.90;;;;;;5033391;22;20049;-83
2022/05/12 03:51:12;;;;;;;0.00;0.00;;;8.70;99.90;;;;;;5007358;28;20063;-83
2022/05/12 03:53:40;;;;;;;0.00;0.00;;;8.80;99.90;;;;;;5009824;28;20041;-83
2022/05/12 03:56:07;;;;;;;0.00;0.00;;;8.80;99.90;;;;;;5025953;28;20045;-83
2022/05/12 03:58:33;;;;;;;0.10;0.10;;;8.80;99.90;;;;;;5042740;28;20060;-83
2022/05/12 04:01:00;;;;;;;0.17;0.17;;;8.80;99.90;;;;;;5007493;28;20044;-83
2022/05/12 04:03:26;;;;;;;0.20;0.20;;;8.80;99.90;;;;;;5007997;28;20048;-83
2022/05/12 04:05:54;;;;;;;0.00;0.00;;;8.80;99.90;;;;;;5031022;28;20110;-83
2022/05/12 04:08:21;;;;;;;0.00;0.00;;;8.80;99.90;;;;;;5040725;28;20560;-83
2022/05/12 04:10:49;;;;;;;0.00;0.00;;;8.90;99.90;;;;;;5024750;28;20045;-83
2022/05/12 04:13:16;;;;;;;0.20;0.20;;;8.90;99.90;;;;;;5007704;28;20052;-84
2022/05/12 04:15:42;;;;;;;0.00;0.00;;;8.90;99.90;;;;;;5024141;28;20397;-83
2022/05/12 04:18:08;;;;;;;0.15;0.15;;;8.90;99.90;;;;;;5026787;28;20091;-84
2022/05/12 04:20:36;;;;;;;0.00;0.00;;;9.00;99.90;;;;;;5010097;28;20037;-83
2022/05/12 04:23:03;;;;;;;0.10;0.10;;;9.10;99.90;;;;;;5025948;28;20036;-83
2022/05/12 04:25:29;;;;;;;0.17;0.08;;;9.10;99.90;;;;;;5026813;28;20418;-83
2022/05/12 04:27:54;;;;;;;0.47;0.47;;;9.10;99.90;;;;;;5043786;28;20087;-83
2022/05/12 04:30:26;;;;;;;0.00;0.00;;;9.10;99.90;;;;;;5027648;28;20072;-83
2022/05/12 04:32:52;;;;;;;0.22;0.20;;;9.20;99.90;;;;;;5005067;28;20041;-78
2022/05/12 04:35:20;;;;;;;0.10;0.10;;;9.20;99.90;;;;;;5022552;28;20052;-78
2022/05/12 04:37:53;;;;;;;0.08;0.08;;;9.20;99.90;;;;;;5030944;28;20140;-78
2022/05/12 04:40:28;;;;;;;0.10;0.10;;;9.30;99.90;;;;;;5021930;28;20122;-78
2022/05/12 04:42:56;;;;;;;0.37;0.30;;;9.30;99.90;;;;;;5022320;28;20064;-78
2022/05/12 04:45:26;;;;;;;0.00;0.00;;;9.40;99.90;;;;;;5023386;28;20040;-78
2022/05/12 04:47:52;;;;;;;0.77;0.45;;;9.40;99.90;;;;;;5022651;28;20037;-78
2022/05/12 04:50:24;;;;;;;0.17;0.17;;;9.50;99.90;;;;;;5021961;28;20403;-78
2022/05/12 04:52:50;;;;;;;0.00;0.00;;;9.60;99.90;;;;;;5004536;28;20094;-78
2022/05/12 04:55:17;;;;;;;0.00;0.00;;;9.70;99.90;;;;;;5004887;28;20566;-78
2022/05/12 04:57:45;;;;;;;0.22;0.22;;;9.70;99.90;;;;;;5039614;28;20037;-78
2022/05/12 05:00:16;;;;;;;0.28;0.28;;;9.80;99.90;;;;;;5022120;28;20392;-78
2022/05/12 05:02:42;;;;;;;0.00;0.00;;;9.90;99.90;;;;;;5023712;28;20126;-78
2022/05/12 05:05:10;;;;;;;0.10;0.10;;;10.00;99.90;;;;;;5022510;28;20175;-82
2022/05/12 05:07:36;;;;;;;0.10;0.10;;;10.20;99.90;;;;;;5022546;28;20041;-82
2022/05/12 05:10:03;;;;;;;0.20;0.20;;;10.40;99.90;;;;;;4994520;28;20036;-83
2022/05/12 05:12:29;;;;;;;0.10;0.10;;;10.50;99.90;;;;;;5023578;28;20040;-83
2022/05/12 05:14:55;;;;;;;0.22;0.20;;;10.60;99.90;;;;;;5022976;28;20040;-83
2022/05/12 05:17:22;;;;;;;0.43;0.38;;;10.90;99.90;;;;;;5009416;28;20037;-82
2022/05/12 05:19:48;;;;;;;2.10;1.27;;;11.20;99.90;;;;;;5009660;28;20068;-83
2022/05/12 05:22:13;;;;;;;0.10;0.10;;;11.50;99.90;;;;;;5036902;28;20040;-79
2022/05/12 05:24:39;;;;;;;0.10;0.10;;;11.90;99.90;;;;;;5019167;28;20044;-79
2022/05/12 05:27:06;;;;;;;0.00;0.00;;;12.30;99.90;;;;;;5035407;28;20043;-79
2022/05/12 05:29:32;;;;;;;0.00;0.00;;;12.50;99.90;;;;;;5030378;28;20491;-79
2022/05/12 05:31:58;;;;;;;0.03;0.03;;;12.80;99.90;;;;;;5008391;28;20112;-79
2022/05/12 05:34:23;;;;;;;8.40;2.55;;;13.20;99.90;;;;;;5022211;28;20032;-79
2022/05/12 05:36:49;;;;;;;1.90;0.50;;;13.30;99.90;;;;;;5005434;28;20170;-79
2022/05/12 05:39:21;;;;;;;0.00;0.00;;;13.70;99.90;;;;;;5020317;28;20053;-79
2022/05/12 05:41:47;;;;;;;0.10;0.10;;;13.90;99.90;;;;;;5024974;28;20041;-79
2022/05/12 05:44:13;;;;;;;0.30;0.30;;;14.20;99.90;;;;;;5021711;28;20171;-79
2022/05/12 05:46:39;;;;;;;0.10;0.10;;;14.40;99.90;;;;;;4992470;28;20044;-79
2022/05/12 05:49:05;;;;;;;1.85;0.28;;;14.40;99.90;;;;;;5020335;28;20462;-79
2022/05/12 05:54:14;;;;;;;10.15;3.08;;;14.90;99.90;;;;;;5006778;28;20045;-79
2022/05/12 05:56:40;;;;;;;0.25;0.20;;;15.20;99.90;;;;;;5021587;28;20040;-83
2022/05/12 05:59:06;;;;;;;0.10;0.10;;;15.20;99.90;;;;;;4977257;28;20064;-83
2022/05/12 06:01:31;;;;;;;0.00;0.00;;;15.70;99.90;;;;;;5030157;28;20044;-83
2022/05/12 06:03:58;;;;;;;0.10;0.10;;;16.20;99.90;;;;;;5005471;28;20044;-84
2022/05/12 06:06:24;;;;;;;0.22;0.13;;;16.40;99.90;;;;;;5024875;28;20084;-83
2022/05/12 06:08:51;;;;;;;1.38;0.55;;;16.60;99.90;;;;;;5040671;28;20175;-83
2022/05/12 06:11:17;;;;;;;0.10;0.10;;;16.90;99.90;;;;;;5023167;28;20316;-83
2022/05/12 06:13:44;;;;;;;2.35;1.33;;;17.30;99.90;;;;;;5025822;28;20044;-84
2022/05/12 06:16:10;;;;;;;0.00;0.00;;;17.30;99.90;;;;;;5027279;28;20052;-83
2022/05/12 06:18:36;;;;;;;0.52;0.52;;;17.20;99.90;;;;;;5012561;28;20478;-84
2022/05/12 06:21:04;;;;;;;0.95;0.75;;;17.30;99.90;;;;;;5028396;28;20049;-83
2022/05/12 06:23:30;;;;;;;1.38;0.63;;;17.10;99.90;;;;;;5028345;28;20119;-84
2022/05/12 06:25:58;;;;;;;0.50;0.50;;;17.20;99.90;;;;;;5026421;28;20094;-83
2022/05/12 06:28:25;;;;;;;0.15;0.15;;;17.60;99.90;;;;;;5010167;28;20033;-83
2022/05/12 06:30:50;;;;;;;1.67;0.95;;;18.10;99.90;;;;;;5010238;28;20086;-85
2022/05/12 06:33:18;;;;;;;0.30;0.28;;;18.40;99.90;;;;;;5008994;28;20414;-85
2022/05/12 06:35:44;;;;;;;0.30;0.30;;;18.00;99.90;;;;;;5014346;28;20036;-85
2022/05/12 06:38:11;;;;;;;0.10;0.10;;;18.30;99.90;;;;;;5035650;28;20033;-85
2022/05/12 06:40:37;;;;;;;1.20;0.95;;;18.40;99.90;;;;;;5034655;28;20074;-85
2022/05/12 06:43:04;;;;;;;0.47;0.20;;;18.40;99.90;;;;;;5005821;28;20041;-85
2022/05/12 06:45:32;;;;;;;0.35;0.35;;;18.80;99.90;;;;;;5035750;28;20078;-85
2022/05/12 06:47:58;;;;;;;0.10;0.10;;;19.20;99.90;;;;;;5029650;28;20119;-85
2022/05/12 06:50:28;;;;;;;0.00;0.00;;;19.20;99.90;;;;;;5032037;28;20064;-85
2022/05/12 06:52:54;;;;;;;0.00;0.00;;;19.30;99.90;;;;;;5033418;28;20045;-85
2022/05/12 06:55:21;;;;;;;0.05;0.05;;;19.40;99.90;;;;;;5016370;28;20062;-85
2022/05/12 06:57:47;;;;;;;0.63;0.50;;;19.80;99.90;;;;;;5035049;28;20045;-84
2022/05/12 07:00:16;;;;;;;0.10;0.10;;;20.00;99.90;;;;;;5032430;28;20083;-85
2022/05/12 07:02:47;;;;;;;0.03;0.03;;;19.90;99.90;;;;;;5029421;28;20111;-84
2022/05/12 07:05:18;;;;;;;0.15;0.10;;;19.90;99.90;;;;;;5011379;28;20041;-81
2022/05/12 07:07:45;;;;;;;0.08;0.08;;;20.20;99.90;;;;;;5023196;28;20045;-80
2022/05/12 07:10:12;;;;;;;0.00;0.00;;;20.70;99.90;;;;;;5026170;28;20047;-80
2022/05/12 07:12:38;;;;;;;0.00;0.00;;;21.30;99.90;;;;;;5044393;28;20029;-80
2022/05/12 07:15:04;;;;;;;0.00;0.00;;;21.20;97.50;;;;;;5026734;28;20464;-81
2022/05/12 07:17:30;;;;;;;0.20;0.10;;;21.30;98.40;;;;;;5043222;28;20049;-81
2022/05/12 07:28:12;;;;;;;2.20;0.77;;;21.10;99.00;;;;;;5041379;28;20128;-80
2022/05/12 07:33:22;;;;;;;0.10;0.10;;;22.20;94.10;;;;;;5012307;28;20555;-81
2022/05/12 07:35:48;;;;;;;0.10;0.10;;;22.40;95.40;;;;;;5011433;28;20163;-86
2022/05/12 07:38:14;;;;;;;0.00;0.00;;;22.70;95.60;;;;;;4996827;28;20044;-85
2022/05/12 07:40:39;;;;;;;0.13;0.13;;;22.60;94.20;;;;;;5030482;28;20037;-85
2022/05/12 07:43:05;;;;;;;0.60;0.60;;;22.60;94.00;;;;;;5014865;28;20049;-85
2022/05/12 07:45:31;;;;;;;0.40;0.25;;;22.60;92.10;;;;;;5046858;28;20045;-85
2022/05/12 07:47:57;;;;;;;0.10;0.10;;;22.30;92.60;;;;;;5030825;28;20066;-86
2022/05/12 07:50:24;;;;;;;0.20;0.20;;;22.60;93.90;;;;;;5030672;28;20175;-85
2022/05/12 07:52:50;;;;;;;0.00;0.00;;;23.20;92.20;;;;;;5024251;28;20032;-81
2022/05/12 07:55:16;;;;;;;2.08;0.88;;;23.50;92.30;;;;;;5008000;28;20037;-81
2022/05/12 07:57:41;;;;;;;0.03;0.03;;;22.70;90.40;;;;;;5011014;28;21202;-81
2022/05/12 08:00:08;;;;;;;1.65;1.20;;;23.30;90.40;;;;;;5026730;28;20930;-80
2022/05/12 08:02:33;;;;;;;0.00;0.00;;;23.20;89.70;;;;;;5011437;28;20053;-80
2022/05/12 08:04:59;;;;;;;0.10;0.10;;;23.80;90.80;;;;;;5024182;28;20051;-80
2022/05/12 08:07:26;;;;;;;0.10;0.10;;;22.60;89.50;;;;;;5009723;28;20072;-80
2022/05/12 08:09:52;;;;;;;1.45;0.88;;;21.90;88.70;;;;;;5025452;28;20044;-84
2022/05/12 08:12:17;;;;;;;5.35;0.68;;;22.20;90.40;;;;;;5010854;28;20041;-85
2022/05/12 08:14:43;;;;;;;0.25;0.25;;;22.40;92.70;;;;;;5025990;28;20430;-84
2022/05/12 08:17:09;;;;;;;0.30;0.30;;;23.40;88.80;;;;;;5022165;28;20045;-84
2022/05/12 08:19:35;;;;;;;2.28;0.95;;;22.90;85.60;;;;;;4999549;28;20048;-84
2022/05/12 08:22:00;;;;;;;0.30;0.30;;;23.80;88.90;;;;;;5007537;28;20071;-84
2022/05/12 08:24:26;;;;;;;0.20;0.20;;;23.50;89.00;;;;;;5024853;28;20044;-84
2022/05/12 08:26:52;;;;;;;0.15;0.15;;;24.00;84.80;;;;;;5001100;28;21948;-85
2022/05/12 08:29:19;;;;;;;0.63;0.63;;;24.20;85.20;;;;;;5011329;28;20060;-85
2022/05/12 08:31:45;;;;;;;0.30;0.28;;;23.80;80.20;;;;;;4979167;28;20395;-85
2022/05/12 08:34:10;;;;;;;0.65;0.32;;;23.60;83.30;;;;;;5010854;28;20045;-85
2022/05/12 08:36:36;;;;;;;0.30;0.13;;;24.00;83.70;;;;;;5010884;28;21052;-85
2022/05/12 08:39:03;;;;;;;0.82;0.52;;;23.80;79.50;;;;;;4995515;28;20057;-85
2022/05/12 08:42:04;;;;;;;1.20;1.10;;;23.70;80.60;;;;;;5010573;28;20450;-84
2022/05/12 08:44:35;;;;;;;0.30;0.30;;;23.20;81.40;;;;;;4913956;28;20040;-84
2022/05/12 08:47:03;;;;;;;0.15;0.15;;;23.50;82.30;;;;;;5007951;28;20052;-85
2022/05/12 08:49:30;;;;;;;0.17;0.10;;;23.70;81.10;;;;;;5009253;28;20044;-84
2022/05/12 08:52:36;;;;;;;0.03;0.03;;;24.00;79.60;;;;;;5043862;28;20435;-85
2022/05/12 08:55:28;;;;;;;0.10;0.10;;;23.40;78.80;;;;;;5044731;28;20037;-85
2022/05/12 08:57:58;;;;;;;0.10;0.10;;;24.30;80.10;;;;;;5044552;28;20426;-85
2022/05/12 09:00:26;;;;;;;0.05;0.05;;;25.10;77.90;;;;;;5025664;28;20051;-81
2022/05/12 09:03:09;;;;;;;0.00;0.00;;;25.80;77.20;;;;;;5023947;28;20094;-80
2022/05/12 09:05:52;;;;;;;0.10;0.10;;;25.60;72.60;;;;;;5011712;28;20037;-80
2022/05/12 09:08:55;;;;;;;0.10;0.10;;;25.10;73.90;;;;;;5038636;28;20039;-80
2022/05/12 09:11:31;;;;;;;0.45;0.45;;;24.40;70.10;;;;;;5024657;28;20051;-80
2022/05/12 09:14:00;;;;;;;1.38;0.75;;;24.70;74.00;;;;;;5034472;28;20114;-80
2022/05/12 09:16:30;;;;;;;0.30;0.30;;;25.00;72.90;;;;;;5035310;28;20582;-80
2022/05/12 09:18:57;;;;;;;0.10;0.10;;;24.20;73.30;;;;;;5018743;28;20446;-80
2022/05/12 09:21:36;;;;;;;0.10;0.10;;;24.60;73.80;;;;;;5035481;28;20045;-80
2022/05/12 09:24:03;;;;;;;1.27;0.77;;;25.20;71.80;;;;;;5018670;28;20041;-80
2022/05/12 09:26:37;;;;;;;0.55;0.55;;;25.90;72.80;;;;;;5035830;28;20041;-80
2022/05/12 09:29:20;;;;;;;0.73;0.73;;;26.10;67.80;;;;;;5048654;28;20065;-80
2022/05/12 09:32:04;;;;;;;0.52;0.50;;;24.30;67.50;;;;;;5027675;28;20051;-80
2022/05/12 09:34:36;;;;;;;0.00;0.00;;;23.70;68.00;;;;;;5027737;28;20029;-80
2022/05/12 09:37:21;;;;;;;0.28;0.25;;;23.70;69.30;;;;;;5027011;28;20667;-80
2022/05/12 09:39:49;;;;;;;1.07;1.00;;;23.70;68.80;;;;;;5027998;28;20098;-79
2022/05/12 09:42:37;;;;;;;0.10;0.10;;;23.80;67.70;;;;;;5048877;28;20311;-80
2022/05/12 09:45:31;;;;;;;0.10;0.10;;;24.10;70.00;;;;;;5038251;28;20045;-79
2022/05/12 09:48:28;;;;;;;0.03;0.03;;;23.30;65.80;;;;;;5032523;28;20045;-79
2022/05/12 09:51:22;;;;;;;2.60;0.63;;;22.90;67.70;;;;;;5034972;28;20402;-80
2022/05/12 09:53:51;;;;;;;0.30;0.10;;;23.40;70.50;;;;;;5035535;28;20041;-80
2022/05/12 09:56:31;;;;;;;0.10;0.10;;;24.10;68.10;;;;;;5035462;28;20045;-80
2022/05/12 09:59:17;;;;;;;0.20;0.20;;;24.40;67.30;;;;;;5051970;28;20091;-80
2022/05/12 10:02:03;;;;;;;0.35;0.35;;;25.20;68.30;;;;;;5011597;28;20135;-80
2022/05/12 10:10:11;;;;;;;0.00;0.00;;;25.10;64.20;;;;;;5034711;28;20037;-80
2022/05/12 10:12:46;;;;;;;0.00;0.00;;;24.90;65.00;;;;;;5035196;28;20483;-80
2022/05/12 10:15:30;;;;;;;0.00;0.00;;;24.60;64.40;;;;;;5035750;28;20041;-80
2022/05/12 10:18:40;;;;;;;0.00;0.00;;;23.80;66.50;;;;;;5035890;28;20041;-80
2022/05/12 10:21:32;;;;;;;0.08;0.08;;;24.30;65.50;;;;;;5043173;28;20037;-80
2022/05/12 10:24:04;;;;;;;0.00;0.00;;;23.80;66.10;;;;;;5035236;28;20060;-80
2022/05/12 10:26:46;;;;;;;0.20;0.20;;;24.10;66.10;;;;;;5018854;28;20041;-80
2022/05/12 10:29:39;;;;;;;0.05;0.05;;;23.60;66.20;;;;;;5035736;28;20345;-80
2022/05/12 10:32:28;;;;;;;0.00;0.00;;;23.00;66.60;;;;;;5035496;28;20115;-80
2022/05/12 10:35:16;;;;;;;0.17;0.17;;;24.10;66.30;;;;;;5018749;28;20487;-80
2022/05/12 10:38:05;;;;;;;0.20;0.20;;;25.20;62.50;;;;;;5032308;28;20415;-80
2022/05/12 10:40:44;;;;;;;0.00;0.00;;;25.50;62.20;;;;;;5032931;28;20037;-85
2022/05/12 10:43:34;;;;;;;0.00;0.00;;;26.20;62.60;;;;;;5034979;28;20390;-86
2022/05/12 10:46:11;;;;;;;0.10;0.10;;;26.80;59.00;;;;;;5035136;28;20041;-85
2022/05/12 10:48:48;;;;;;;0.65;0.60;;;26.60;61.50;;;;;;5035312;28;20041;-85
2022/05/12 10:51:51;;;;;;;0.05;0.05;;;26.70;58.60;;;;;;5034661;28;20473;-85
2022/05/12 10:54:26;;;;;;;0.00;0.00;;;25.70;59.70;;;;;;5018191;28;20052;-85
2022/05/12 10:57:11;;;;;;;0.00;0.00;;;24.80;61.10;;;;;;5035141;28;20045;-85
2022/05/12 10:59:43;;;;;;;0.10;0.10;;;24.90;64.30;;;;;;5023295;28;20052;-85
2022/05/12 11:02:11;;;;;;;0.35;0.35;;;24.30;62.20;;;;;;5021579;28;20037;-85
2022/05/12 11:04:49;;;;;;;0.20;0.20;;;24.50;66.00;;;;;;5038358;28;20040;-85
2022/05/12 11:07:33;;;;;;;0.28;0.22;;;23.90;66.10;;;;;;5038527;28;20052;-85
2022/05/12 11:10:20;;;;;;;0.20;0.20;;;23.70;65.70;;;;;;5038173;28;20041;-85
2022/05/12 11:12:51;;;;;;;1.30;1.25;;;22.80;65.90;;;;;;5038223;28;20406;-80
2022/05/12 11:15:26;;;;;;;0.45;0.35;;;22.80;69.30;;;;;;5054402;28;20454;-80
2022/05/12 11:17:54;;;;;;;0.88;0.63;;;23.20;66.80;;;;;;5037836;28;20348;-80
2022/05/12 11:20:25;;;;;;;0.50;0.50;;;22.30;67.90;;;;;;5038561;28;20040;-80
2022/05/12 11:23:07;;;;;;;0.38;0.38;;;21.80;68.00;;;;;;5038585;28;20130;-80
2022/05/12 11:25:50;;;;;;;0.00;0.00;;;21.70;69.40;;;;;;5038188;28;20056;-80
2022/05/12 11:32:12;;;;;;;0.00;0.00;;;22.30;65.00;;;;;;5025723;28;20041;-86
2022/05/12 11:34:39;;;;;;;0.10;0.10;;;22.10;67.00;;;;;;5037789;28;20124;-87
2022/05/12 11:37:40;;;;;;;0.80;0.60;;;22.70;66.30;;;;;;5018691;28;20037;-87
2022/05/12 11:40:09;;;;;;;0.00;0.00;;;23.10;64.10;;;;;;5029793;28;20505;-87
2022/05/12 11:45:47;;;;;;;0.10;0.10;;;23.50;67.90;;;;;;5037844;28;20075;-85
2022/05/12 11:49:24;;;;;;;0.10;0.10;;;24.20;63.00;;;;;;5038328;28;20454;-85
2022/05/12 11:52:02;;;;;;;0.03;0.03;;;25.80;63.70;;;;;;4915762;28;20447;-84
2022/05/12 11:54:36;;;;;;;0.00;0.00;;;25.60;60.00;;;;;;5017487;28;20056;-85
2022/05/12 11:57:22;;;;;;;0.10;0.10;;;25.00;61.40;;;;;;5020753;28;20071;-85
2022/05/12 11:59:51;;;;;;;0.10;0.10;;;25.50;63.10;;;;;;5021125;28;20053;-85
2022/05/12 12:02:29;;;;;;;0.10;0.10;;;25.40;62.50;;;;;;5037700;28;20490;-86
2022/05/12 12:05:03;;;;;;;0.25;0.25;;;24.80;61.10;;;;;;5038390;28;20447;-85
2022/05/12 12:07:32;;;;;;;0.17;0.17;;;24.70;62.20;;;;;;5037008;28;20130;-85
2022/05/12 12:10:37;;;;;;;0.00;0.00;;;24.00;62.60;;;;;;5049820;28;20045;-85
2022/05/12 12:13:33;;;;;;;0.00;0.00;;;24.10;63.00;;;;;;5036796;28;20375;-85
2022/05/12 12:16:13;;;;;;;3.00;0.17;;;24.30;62.60;;;;;;5037290;28;20045;-85
2022/05/12 12:18:39;;;;;;;0.00;0.00;;;23.80;61.90;;;;;;5021302;28;20036;-81
2022/05/12 12:21:27;;;;;;;0.00;0.00;;;23.80;62.50;;;;;;5037556;28;20041;-80
2022/05/12 12:24:03;;;;;;;0.00;0.00;;;23.10;62.70;;;;;;5037047;28;20037;-80
2022/05/12 12:26:33;;;;;;;0.20;0.20;;;23.20;65.00;;;;;;5020843;28;20413;-81
2022/05/12 12:29:18;;;;;;;0.10;0.10;;;23.10;64.00;;;;;;5037376;28;20070;-81
2022/05/12 12:31:47;;;;;;;0.15;0.15;;;23.30;63.40;;;;;;5020568;28;20052;-80
2022/05/12 12:34:17;;;;;;;0.10;0.10;;;22.60;62.70;;;;;;5053803;28;20158;-80
2022/05/12 12:37:00;;;;;;;0.00;0.00;;;22.50;63.00;;;;;;5053484;28;20069;-80
2022/05/12 12:39:46;;;;;;;0.20;0.20;;;22.50;65.40;;;;;;5033809;28;20076;-80
2022/05/12 12:42:17;;;;;;;0.08;0.08;;;22.20;65.30;;;;;;5036970;28;20112;-80
2022/05/12 12:44:49;;;;;;;0.00;0.00;;;22.20;64.60;;;;;;5036742;28;20049;-80
2022/05/12 12:47:39;;;;;;;0.00;0.00;;;22.00;64.70;;;;;;5036612;28;20033;-80
2022/05/12 12:50:27;;;;;;;0.00;0.00;;;21.80;65.30;;;;;;5036615;28;20483;-80
2022/05/12 12:52:56;;;;;;;0.10;0.10;;;21.90;65.10;;;;;;5020163;28;20045;-86
2022/05/12 12:58:37;;;;;;;0.00;0.00;;;21.70;64.90;;;;;;5036267;28;20518;-87
2022/05/12 13:01:16;;;;;;;0.10;0.10;;;21.80;63.40;;;;;;5033186;28;20471;-86
2022/05/12 13:03:54;;;;;;;0.00;0.00;;;21.80;64.50;;;;;;5013337;28;20123;-86
2022/05/12 13:06:30;;;;;;;0.15;0.10;;;21.50;66.10;;;;;;5006679;28;20041;-80
2022/05/12 13:09:06;;;;;;;0.00;0.00;;;21.70;65.80;;;;;;5036161;28;20044;-80
2022/05/12 13:11:36;;;;;;;0.55;0.25;;;21.40;66.00;;;;;;5023697;28;20041;-80
2022/05/12 13:14:02;;;;;;;0.10;0.10;;;21.00;66.70;;;;;;5019636;28;20120;-80
2022/05/12 13:16:35;;;;;;;3.40;1.65;;;20.80;67.90;;;;;;5036588;28;20136;-86
2022/05/12 13:19:01;;;;;;;0.00;0.00;;;21.00;66.50;;;;;;5026477;28;20036;-86
2022/05/12 13:21:36;;;;;;;0.00;0.00;;;21.30;65.80;;;;;;5016725;28;20091;-85
2022/05/12 13:24:22;;;;;;;0.17;0.17;;;20.80;66.20;;;;;;5051443;28;20471;-85
2022/05/12 13:26:50;;;;;;;0.00;0.00;;;20.60;68.40;;;;;;5036230;28;20490;-88
2022/05/12 13:29:36;;;;;;;0.47;0.30;;;20.60;69.00;;;;;;5035414;28;20040;-87
2022/05/12 13:32:08;;;;;;;0.17;0.17;;;20.40;69.50;;;;;;5033310;28;20042;-87
2022/05/12 13:34:35;;;;;;;0.10;0.10;;;20.50;69.00;;;;;;5019102;28;20045;-87
2022/05/12 13:37:20;;;;;;;0.10;0.10;;;20.40;69.90;;;;;;5032963;28;20055;-87
2022/05/12 13:39:51;;;;;;;0.00;0.00;;;20.00;70.00;;;;;;5018296;28;20120;-87
2022/05/12 13:42:31;;;;;;;0.30;0.30;;;20.00;70.30;;;;;;5015846;28;20059;-86